Time;durP1;ratioP1;P1;durP2;ratioP2;P2;SDS_P1;SDS_P2;PMS_P1;PMS_P2;Temp;Humidity;BMP_temperature;BMP_pressure;BME280_temperature;BME280_humidity;BME280_pressure;Samples;Min_cycle;Max_cycle;Signal;HPM_P1;HPM_P2
2021/03/18 00:00:56;;;;;;;35.80;14.00;;;-0.90;99.90;;;;;;6270228;22;20026;-73
2021/03/18 00:03:29;;;;;;;33.67;14.10;;;-0.90;99.90;;;;;;6271674;22;20018;-73
2021/03/18 00:05:56;;;;;;;31.13;12.77;;;-1.00;99.90;;;;;;6268853;22;20011;-73
2021/03/18 00:08:23;;;;;;;33.15;12.65;;;-1.10;99.90;;;;;;6269716;22;20015;-73
2021/03/18 00:10:49;;;;;;;26.50;13.30;;;-1.10;99.90;;;;;;6270869;22;20011;-73
2021/03/18 00:13:15;;;;;;;29.88;13.05;;;-1.10;99.90;;;;;;6270232;22;20444;-74
2021/03/18 00:15:44;;;;;;;28.00;13.15;;;-1.20;99.90;;;;;;6270128;22;20053;-76
2021/03/18 00:18:13;;;;;;;32.00;12.65;;;-1.20;99.90;;;;;;6243603;22;20414;-75
2021/03/18 00:20:38;;;;;;;32.80;13.05;;;-1.00;99.90;;;;;;6269272;22;20020;-75
2021/03/18 00:23:05;;;;;;;25.70;12.45;;;-1.10;99.90;;;;;;6269563;22;20332;-74
2021/03/18 00:25:31;;;;;;;36.00;12.88;;;-1.10;99.90;;;;;;6269200;22;20003;-74
2021/03/18 00:27:57;;;;;;;32.85;12.50;;;-1.20;99.90;;;;;;6269173;22;20000;-74
2021/03/18 00:30:24;;;;;;;31.45;13.10;;;-1.20;99.90;;;;;;6269097;22;20019;-75
2021/03/18 00:32:51;;;;;;;32.45;12.57;;;-1.20;99.90;;;;;;6268987;22;20012;-74
2021/03/18 00:35:17;;;;;;;28.58;12.27;;;-1.10;99.90;;;;;;6269361;22;20324;-75
2021/03/18 00:37:44;;;;;;;31.58;13.15;;;-1.10;99.90;;;;;;6271221;22;19999;-74
2021/03/18 00:40:25;;;;;;;32.97;13.93;;;-1.30;99.90;;;;;;6268309;22;20031;-76
2021/03/18 00:43:04;;;;;;;33.00;13.88;;;-1.40;99.90;;;;;;6270602;22;20062;-73
2021/03/18 00:45:32;;;;;;;29.98;12.77;;;-1.50;99.90;;;;;;6268513;22;20092;-77
2021/03/18 00:47:58;;;;;;;39.40;13.65;;;-1.40;99.90;;;;;;6270840;22;20040;-76
2021/03/18 00:50:37;;;;;;;28.63;13.35;;;-1.20;99.90;;;;;;6270983;22;20007;-77
2021/03/18 00:53:04;;;;;;;38.33;13.50;;;-1.10;99.90;;;;;;6269600;22;20004;-77
2021/03/18 00:55:29;;;;;;;29.15;13.15;;;-1.10;99.90;;;;;;6269573;22;20390;-77
2021/03/18 00:57:55;;;;;;;36.08;14.43;;;-1.10;99.90;;;;;;6269212;22;20080;-78
2021/03/18 01:00:25;;;;;;;32.67;14.68;;;-1.10;99.90;;;;;;6268986;22;20031;-77
2021/03/18 01:02:51;;;;;;;32.35;13.73;;;-1.30;99.90;;;;;;6267984;22;20327;-74
2021/03/18 01:05:30;;;;;;;30.27;13.15;;;-1.30;99.90;;;;;;6270401;22;20003;-76
2021/03/18 01:07:56;;;;;;;34.42;13.68;;;-1.10;99.90;;;;;;6269308;22;20004;-75
2021/03/18 01:10:25;;;;;;;26.88;13.00;;;-1.20;99.90;;;;;;6268558;22;20407;-77
2021/03/18 01:12:51;;;;;;;30.13;13.40;;;-1.00;99.90;;;;;;6270238;22;20011;-73
2021/03/18 01:15:17;;;;;;;29.77;13.45;;;-1.10;99.90;;;;;;6271422;22;20000;-75
2021/03/18 01:17:43;;;;;;;36.95;14.85;;;-1.10;99.90;;;;;;6271514;22;20015;-74
2021/03/18 01:20:12;;;;;;;31.50;14.95;;;-1.00;99.90;;;;;;6271625;22;20302;-78
2021/03/18 01:22:38;;;;;;;33.35;14.32;;;-0.80;99.90;;;;;;6272656;22;20074;-75
2021/03/18 01:25:05;;;;;;;39.50;16.33;;;-0.80;99.90;;;;;;6272332;22;20062;-73
2021/03/18 01:27:31;;;;;;;29.05;13.90;;;-0.80;99.90;;;;;;6272086;22;20460;-72
2021/03/18 01:29:56;;;;;;;32.83;15.55;;;-0.90;99.90;;;;;;6272133;22;20000;-73
2021/03/18 01:32:22;;;;;;;32.88;14.18;;;-0.90;99.90;;;;;;6271963;22;20016;-74
2021/03/18 01:34:48;;;;;;;32.45;14.50;;;-1.00;99.90;;;;;;6272701;22;20477;-73
2021/03/18 01:37:13;;;;;;;32.72;14.88;;;-0.80;99.90;;;;;;6271188;22;20038;-74
2021/03/18 01:39:39;;;;;;;36.38;15.40;;;-0.80;99.90;;;;;;6272300;22;20392;-74
2021/03/18 01:42:05;;;;;;;38.55;14.60;;;-0.70;99.90;;;;;;6271577;22;20011;-75
2021/03/18 01:44:30;;;;;;;39.65;15.90;;;-0.70;99.90;;;;;;6272623;22;20447;-73
2021/03/18 01:46:56;;;;;;;35.53;15.68;;;-0.60;99.90;;;;;;6271309;22;20000;-75
2021/03/18 01:49:22;;;;;;;40.72;14.88;;;-0.70;99.90;;;;;;6272302;22;20424;-75
2021/03/18 01:51:47;;;;;;;35.42;15.27;;;-0.70;99.90;;;;;;6273007;22;20420;-74
2021/03/18 01:54:14;;;;;;;29.77;14.77;;;-0.90;99.90;;;;;;6271941;22;20063;-73
2021/03/18 01:56:40;;;;;;;38.72;14.80;;;-0.90;99.90;;;;;;6272567;22;20004;-72
2021/03/18 01:59:06;;;;;;;32.67;14.20;;;-1.00;99.90;;;;;;6272415;22;20353;-72
2021/03/18 02:01:31;;;;;;;30.83;14.40;;;-1.10;99.90;;;;;;6272330;22;20522;-76
2021/03/18 02:03:58;;;;;;;34.53;15.15;;;-1.10;99.90;;;;;;6272009;22;19996;-75
2021/03/18 02:06:24;;;;;;;37.45;15.43;;;-1.00;99.90;;;;;;6273035;22;20332;-76
2021/03/18 02:08:49;;;;;;;37.22;15.65;;;-1.10;99.90;;;;;;6272441;22;20008;-75
2021/03/18 02:11:15;;;;;;;37.70;15.77;;;-1.20;99.90;;;;;;6271971;22;20007;-75
2021/03/18 02:13:41;;;;;;;37.25;14.32;;;-1.10;99.90;;;;;;6272732;22;20007;-77
2021/03/18 02:16:10;;;;;;;35.17;17.02;;;-1.00;99.90;;;;;;6271825;22;20008;-78
2021/03/18 02:18:53;;;;;;;36.03;14.07;;;-1.00;99.90;;;;;;6272806;22;20004;-76
2021/03/18 02:21:37;;;;;;;34.15;15.68;;;-1.10;99.90;;;;;;6272857;22;20015;-73
2021/03/18 02:24:41;;;;;;;34.75;15.50;;;-1.20;99.90;;;;;;6271492;22;20047;-76
2021/03/18 02:27:25;;;;;;;35.13;14.90;;;-1.20;99.90;;;;;;6271578;22;20462;-78
2021/03/18 02:30:27;;;;;;;37.85;14.98;;;-1.10;99.90;;;;;;6245619;22;20027;-76
2021/03/18 02:33:14;;;;;;;33.78;14.93;;;-1.10;99.90;;;;;;6272196;22;20019;-76
2021/03/18 02:35:44;;;;;;;34.33;15.40;;;-1.10;99.90;;;;;;6271456;22;20058;-78
2021/03/18 02:38:20;;;;;;;34.03;15.38;;;-1.30;99.90;;;;;;6271043;22;20011;-76
2021/03/18 02:40:56;;;;;;;34.25;14.80;;;-1.30;99.90;;;;;;6271486;22;20007;-76
2021/03/18 02:43:24;;;;;;;34.88;13.82;;;-1.40;99.90;;;;;;6271628;22;20042;-76
2021/03/18 02:45:54;;;;;;;30.70;14.88;;;-1.50;99.90;;;;;;6270810;22;20008;-79
2021/03/18 02:48:25;;;;;;;33.30;15.20;;;-1.50;99.90;;;;;;6271729;22;20494;-76
2021/03/18 02:50:52;;;;;;;32.58;14.65;;;-1.60;99.90;;;;;;6271872;22;20003;-76
2021/03/18 02:53:20;;;;;;;34.75;14.60;;;-1.60;99.90;;;;;;6272494;22;20306;-76
2021/03/18 02:55:47;;;;;;;38.97;14.90;;;-1.60;99.90;;;;;;6272240;22;20293;-77
2021/03/18 02:58:29;;;;;;;36.75;14.23;;;-1.50;99.90;;;;;;6271237;22;20356;-76
2021/03/18 03:00:57;;;;;;;32.28;14.75;;;-1.40;99.90;;;;;;6271713;22;20062;-75
2021/03/18 03:03:24;;;;;;;33.90;14.95;;;-1.40;99.90;;;;;;6272437;22;20015;-76
2021/03/18 03:05:53;;;;;;;37.50;14.85;;;-1.50;99.90;;;;;;6272605;22;20027;-75
2021/03/18 03:08:21;;;;;;;35.42;14.60;;;-1.50;99.90;;;;;;6272086;22;20007;-73
2021/03/18 03:10:48;;;;;;;32.00;14.32;;;-1.50;99.90;;;;;;6272598;22;20007;-71
2021/03/18 03:13:15;;;;;;;33.53;14.05;;;-1.60;99.90;;;;;;6272219;22;20003;-74
2021/03/18 03:15:42;;;;;;;37.38;15.88;;;-1.60;99.90;;;;;;6245666;22;20031;-74
2021/03/18 03:18:10;;;;;;;33.92;15.40;;;-1.60;99.90;;;;;;6271957;22;20000;-74
2021/03/18 03:20:37;;;;;;;33.67;14.35;;;-1.60;99.90;;;;;;6271965;22;20077;-73
2021/03/18 03:23:08;;;;;;;35.03;15.32;;;-1.60;99.90;;;;;;6244937;22;20004;-73
2021/03/18 03:25:35;;;;;;;;;;;-1.40;99.90;;;;;;6272731;22;20004;-77
2021/03/18 03:28:02;;;;;;;35.60;13.48;;;-0.90;99.90;;;;;;6271310;22;19978;-74
2021/03/18 03:30:28;;;;;;;32.55;14.77;;;-0.60;99.90;;;;;;6272797;22;20012;-75
2021/03/18 03:32:54;;;;;;;35.92;14.93;;;-0.40;99.90;;;;;;6272065;22;20089;-74
2021/03/18 03:35:21;;;;;;;34.47;15.73;;;-0.40;99.90;;;;;;6272965;22;20039;-73
2021/03/18 03:37:47;;;;;;;36.47;16.42;;;-0.60;99.90;;;;;;6274004;22;20070;-74
2021/03/18 03:40:15;;;;;;;36.60;16.33;;;-0.50;99.90;;;;;;6272456;22;20008;-74
2021/03/18 03:42:41;;;;;;;38.30;15.90;;;-0.60;99.90;;;;;;6274111;22;20007;-74
2021/03/18 03:45:10;;;;;;;38.45;16.65;;;-0.80;99.90;;;;;;6273573;22;20008;-74
2021/03/18 03:47:38;;;;;;;38.80;16.77;;;-0.90;99.90;;;;;;6273692;22;20007;-74
2021/03/18 03:50:10;;;;;;;40.90;16.35;;;-1.00;99.90;;;;;;6273304;22;20003;-72
2021/03/18 03:53:15;;;;;;;42.70;16.90;;;-1.00;99.90;;;;;;6273475;22;20030;-75
2021/03/18 03:56:04;;;;;;;34.00;16.33;;;-1.00;99.90;;;;;;6273625;22;20361;-74
2021/03/18 03:58:48;;;;;;;35.65;15.88;;;-0.90;99.90;;;;;;6273522;22;20061;-73
2021/03/18 04:01:22;;;;;;;35.70;16.92;;;-0.90;99.90;;;;;;6273188;22;20008;-73
2021/03/18 04:03:49;;;;;;;36.35;15.88;;;-0.70;99.90;;;;;;6273796;22;20003;-74
2021/03/18 04:06:15;;;;;;;38.13;16.75;;;-0.50;99.90;;;;;;6273268;22;20010;-77
2021/03/18 04:08:44;;;;;;;40.35;17.88;;;-0.30;99.90;;;;;;6273256;22;20617;-79
2021/03/18 04:11:11;;;;;;;40.45;17.60;;;-0.20;99.90;;;;;;6273480;22;20004;-75
2021/03/18 04:13:36;;;;;;;42.10;17.58;;;-0.20;99.90;;;;;;6274020;22;20008;-75
2021/03/18 04:16:03;;;;;;;42.58;18.35;;;-0.10;99.90;;;;;;6273577;22;20014;-76
2021/03/18 04:18:37;;;;;;;44.25;18.65;;;-0.30;99.90;;;;;;6273666;22;20349;-76
2021/03/18 04:21:05;;;;;;;41.78;17.40;;;-0.30;99.90;;;;;;6272937;22;20018;-78
2021/03/18 04:23:31;;;;;;;38.47;17.55;;;-0.30;99.90;;;;;;6273170;22;20221;-79
2021/03/18 04:25:58;;;;;;;44.25;18.23;;;-0.30;99.90;;;;;;6273371;22;20011;-75
2021/03/18 04:28:29;;;;;;;48.33;18.45;;;-0.50;99.90;;;;;;6273984;22;20008;-75
2021/03/18 04:30:56;;;;;;;43.63;18.55;;;-0.60;99.90;;;;;;6274145;22;20008;-76
2021/03/18 04:33:24;;;;;;;40.65;19.10;;;-0.40;99.90;;;;;;6218990;22;20091;-77
2021/03/18 04:35:50;;;;;;;44.55;18.75;;;-0.40;99.90;;;;;;6273375;22;20070;-76
2021/03/18 04:38:17;;;;;;;42.30;19.33;;;-0.30;99.90;;;;;;6272666;22;20348;-75
2021/03/18 04:40:43;;;;;;;46.97;19.85;;;-0.20;99.90;;;;;;6273327;22;20016;-75
2021/03/18 04:43:09;;;;;;;48.25;20.63;;;-0.10;99.90;;;;;;6272753;22;20006;-74
2021/03/18 04:45:35;;;;;;;47.38;19.38;;;-0.10;99.90;;;;;;6273830;22;20006;-75
2021/03/18 04:48:02;;;;;;;43.45;19.25;;;-0.20;99.90;;;;;;6272905;22;19999;-74
2021/03/18 04:50:29;;;;;;;50.30;18.42;;;-0.20;99.90;;;;;;6246082;22;20038;-74
2021/03/18 04:52:54;;;;;;;42.75;19.73;;;-0.30;99.90;;;;;;6273423;22;20003;-74
2021/03/18 04:55:21;;;;;;;49.50;18.55;;;-0.30;99.90;;;;;;6272535;22;20336;-75
2021/03/18 04:57:53;;;;;;;44.28;20.20;;;-0.20;99.90;;;;;;6273544;22;20387;-75
2021/03/18 05:00:20;;;;;;;48.50;19.95;;;0.00;99.90;;;;;;6272028;22;20016;-75
2021/03/18 05:02:47;;;;;;;50.45;21.15;;;0.00;99.90;;;;;;6273319;22;20004;-75
2021/03/18 05:05:16;;;;;;;43.75;19.42;;;0.00;99.90;;;;;;6272442;22;19999;-74
2021/03/18 05:07:47;;;;;;;47.72;20.17;;;0.00;99.90;;;;;;6273481;22;20007;-75
2021/03/18 05:10:19;;;;;;;46.72;21.45;;;0.20;99.90;;;;;;6272200;22;20031;-74
2021/03/18 05:12:45;;;;;;;48.55;18.45;;;0.30;99.90;;;;;;6273294;22;20007;-77
2021/03/18 05:15:14;;;;;;;48.17;22.35;;;0.70;99.90;;;;;;6271588;22;20384;-77
2021/03/18 05:17:40;;;;;;;48.88;21.02;;;0.80;99.90;;;;;;6273275;22;20000;-74
2021/03/18 05:20:07;;;;;;;44.47;21.45;;;0.60;99.90;;;;;;6271029;22;20012;-78
2021/03/18 05:22:34;;;;;;;45.60;20.45;;;0.80;99.90;;;;;;6269938;22;20027;-76
2021/03/18 05:25:02;;;;;;;44.90;20.25;;;1.00;99.90;;;;;;6271989;22;20059;-77
2021/03/18 05:27:28;;;;;;;44.38;20.75;;;1.10;99.90;;;;;;6271684;22;20346;-76
2021/03/18 05:29:53;;;;;;;47.00;21.55;;;1.10;99.90;;;;;;6271115;22;20099;-76
2021/03/18 05:32:19;;;;;;;46.88;19.95;;;1.20;99.90;;;;;;6271106;22;20012;-77
2021/03/18 05:34:45;;;;;;;51.53;21.45;;;1.10;99.90;;;;;;6272341;22;20007;-77
2021/03/18 05:37:10;;;;;;;42.75;20.35;;;1.20;99.90;;;;;;6271683;22;20015;-79
2021/03/18 05:39:36;;;;;;;47.17;19.30;;;1.20;99.90;;;;;;6271849;22;20011;-74
2021/03/18 05:42:02;;;;;;;45.38;20.00;;;1.10;99.90;;;;;;6270711;22;20015;-74
2021/03/18 05:44:28;;;;;;;49.08;19.23;;;1.10;99.90;;;;;;6271994;22;20007;-76
2021/03/18 05:46:57;;;;;;;46.50;19.55;;;1.30;99.90;;;;;;6272043;22;20008;-75
2021/03/18 05:49:23;;;;;;;40.13;18.60;;;1.20;99.90;;;;;;6270836;22;20004;-74
2021/03/18 05:51:50;;;;;;;37.95;18.02;;;1.20;99.90;;;;;;6272641;22;20084;-75
2021/03/18 05:54:20;;;;;;;41.35;17.08;;;1.40;99.90;;;;;;6271161;22;20331;-79
2021/03/18 05:56:48;;;;;;;39.72;18.73;;;1.50;99.90;;;;;;6271906;22;20366;-76
2021/03/18 05:59:16;;;;;;;42.08;19.23;;;1.50;99.90;;;;;;6270800;22;20053;-75
2021/03/18 06:01:42;;;;;;;47.92;18.67;;;1.70;99.90;;;;;;6270776;22;20094;-73
2021/03/18 06:04:09;;;;;;;43.30;20.83;;;1.50;99.90;;;;;;6243536;22;20380;-74
2021/03/18 06:06:35;;;;;;;48.72;20.83;;;1.60;99.90;;;;;;6245380;22;20008;-73
2021/03/18 06:09:04;;;;;;;39.38;17.75;;;1.60;99.90;;;;;;6272039;22;20467;-75
2021/03/18 06:11:30;;;;;;;33.13;15.43;;;1.80;99.90;;;;;;6272663;22;20358;-77
2021/03/18 06:13:55;;;;;;;40.53;18.45;;;1.90;99.90;;;;;;6271764;22;20025;-77
2021/03/18 06:16:21;;;;;;;36.47;16.02;;;1.80;99.90;;;;;;6271137;22;20407;-81
2021/03/18 06:18:47;;;;;;;47.38;22.02;;;1.80;99.90;;;;;;6272272;22;20412;-77
2021/03/18 06:21:13;;;;;;;41.65;19.63;;;1.80;99.90;;;;;;6243795;22;20444;-75
2021/03/18 06:23:39;;;;;;;38.88;19.05;;;1.80;99.90;;;;;;6272919;22;20018;-75
2021/03/18 06:26:05;;;;;;;40.63;18.27;;;1.90;99.90;;;;;;6271450;22;20007;-75
2021/03/18 06:28:32;;;;;;;23.95;11.40;;;2.00;99.90;;;;;;6271456;22;20004;-76
2021/03/18 06:31:10;;;;;;;35.40;17.33;;;2.10;99.90;;;;;;6272279;22;20408;-77
2021/03/18 06:33:45;;;;;;;32.72;16.88;;;2.20;99.90;;;;;;6272207;22;20389;-76
2021/03/18 06:36:22;;;;;;;23.80;10.95;;;2.20;99.90;;;;;;6271293;22;20008;-76
2021/03/18 06:39:06;;;;;;;33.38;16.33;;;2.30;99.90;;;;;;6272281;22;20000;-71
2021/03/18 06:41:42;;;;;;;37.38;16.83;;;2.30;99.90;;;;;;6271303;22;20094;-74
2021/03/18 06:44:25;;;;;;;31.58;17.42;;;2.30;99.90;;;;;;6269949;22;20004;-73
2021/03/18 06:46:53;;;;;;;39.95;17.42;;;2.50;99.90;;;;;;6244598;22;20301;-73
2021/03/18 06:49:21;;;;;;;29.65;16.67;;;2.60;99.90;;;;;;6270035;22;20686;-72
2021/03/18 06:52:12;;;;;;;40.28;18.15;;;2.50;99.90;;;;;;6271467;22;19999;-72
2021/03/18 06:54:43;;;;;;;31.92;16.48;;;2.90;99.90;;;;;;6272423;22;20004;-78
2021/03/18 06:57:10;;;;;;;31.00;16.90;;;2.70;99.90;;;;;;6271400;22;20031;-76
2021/03/18 06:59:38;;;;;;;31.67;16.70;;;2.80;99.90;;;;;;6270667;22;20385;-72
2021/03/18 07:02:14;;;;;;;33.63;15.63;;;2.70;99.90;;;;;;6272251;22;20078;-75
2021/03/18 07:04:46;;;;;;;28.30;13.93;;;3.00;99.90;;;;;;6271907;22;20007;-73
2021/03/18 07:07:13;;;;;;;33.00;16.25;;;2.90;99.90;;;;;;6270010;22;20007;-73
2021/03/18 07:09:40;;;;;;;34.80;17.38;;;3.20;99.90;;;;;;6272411;22;20083;-73
2021/03/18 07:12:09;;;;;;;34.40;16.95;;;3.30;99.90;;;;;;6274061;22;20000;-73
2021/03/18 07:14:48;;;;;;;33.30;15.98;;;3.30;99.90;;;;;;6273085;22;20089;-74
2021/03/18 07:17:31;;;;;;;34.83;15.25;;;3.30;99.90;;;;;;6272953;22;19999;-74
2021/03/18 07:20:15;;;;;;;36.05;17.02;;;3.30;99.90;;;;;;6272692;22;20019;-74
2021/03/18 07:22:47;;;;;;;33.95;16.58;;;3.50;99.90;;;;;;6273735;22;20003;-73
2021/03/18 07:25:14;;;;;;;34.40;16.38;;;3.50;99.90;;;;;;6271905;22;20332;-71
2021/03/18 07:27:45;;;;;;;31.33;15.23;;;3.70;99.90;;;;;;6274167;22;20325;-72
2021/03/18 07:30:28;;;;;;;36.00;16.25;;;3.60;99.90;;;;;;6273268;22;20027;-72
2021/03/18 07:32:55;;;;;;;28.85;15.38;;;3.70;99.90;;;;;;6273035;22;20016;-73
2021/03/18 07:35:22;;;;;;;35.00;16.50;;;3.80;99.90;;;;;;6261449;22;20335;-73
2021/03/18 07:37:48;;;;;;;35.92;15.35;;;3.80;99.90;;;;;;6240161;22;20565;-73
2021/03/18 07:40:14;;;;;;;34.30;15.98;;;3.80;99.90;;;;;;6265883;22;20089;-73
2021/03/18 07:42:41;;;;;;;25.55;14.27;;;4.20;99.90;;;;;;6264628;22;20541;-73
2021/03/18 07:45:08;;;;;;;26.25;14.23;;;4.30;99.90;;;;;;6266923;22;20026;-73
2021/03/18 07:47:35;;;;;;;27.92;14.15;;;4.70;99.90;;;;;;6267010;22;19999;-73
2021/03/18 07:50:04;;;;;;;26.33;14.35;;;4.70;99.90;;;;;;6267297;22;20128;-74
2021/03/18 07:52:30;;;;;;;26.93;13.17;;;4.90;99.90;;;;;;6267001;22;20527;-73
2021/03/18 07:54:58;;;;;;;27.35;13.18;;;4.90;99.90;;;;;;6268102;22;20876;-73
2021/03/18 07:57:24;;;;;;;31.17;13.68;;;5.10;99.90;;;;;;6270781;22;20075;-74
2021/03/18 07:59:50;;;;;;;28.45;13.23;;;5.30;99.90;;;;;;6273787;22;20424;-74
2021/03/18 08:02:17;;;;;;;27.10;13.57;;;5.50;99.90;;;;;;6272300;22;20008;-73
2021/03/18 08:04:54;;;;;;;27.55;11.70;;;5.80;99.90;;;;;;6272700;22;20019;-73
2021/03/18 08:07:40;;;;;;;25.55;12.98;;;6.10;99.90;;;;;;6273126;22;20007;-72
2021/03/18 08:10:29;;;;;;;24.25;11.55;;;6.40;99.90;;;;;;6273090;22;20086;-71
2021/03/18 08:12:57;;;;;;;21.63;11.45;;;7.10;99.90;;;;;;6273611;22;20079;-74
2021/03/18 08:15:24;;;;;;;26.90;11.38;;;6.70;99.90;;;;;;6272812;22;20007;-71
2021/03/18 08:17:53;;;;;;;21.08;9.20;;;6.80;99.90;;;;;;6272938;22;20020;-73
2021/03/18 08:20:48;;;;;;;16.80;7.70;;;7.10;99.90;;;;;;6272393;22;20110;-73
2021/03/18 08:23:23;;;;;;;21.65;10.77;;;7.70;99.90;;;;;;6260884;22;20004;-73
2021/03/18 08:26:02;;;;;;;23.67;9.95;;;7.40;99.90;;;;;;6245783;22;20007;-73
2021/03/18 08:28:48;;;;;;;20.15;10.43;;;7.20;99.90;;;;;;6272904;22;20008;-73
2021/03/18 08:31:18;;;;;;;19.58;9.13;;;6.90;99.90;;;;;;6273273;22;20141;-73
2021/03/18 08:33:53;;;;;;;25.17;10.25;;;6.50;99.90;;;;;;6273118;22;20015;-73
2021/03/18 08:36:30;;;;;;;20.10;7.95;;;6.30;99.90;;;;;;6272496;22;20040;-73
2021/03/18 08:39:06;;;;;;;24.95;12.40;;;6.00;99.90;;;;;;6273410;22;20007;-74
2021/03/18 08:41:40;;;;;;;21.42;9.98;;;6.20;99.90;;;;;;6244428;22;20472;-75
2021/03/18 08:44:31;;;;;;;33.42;10.43;;;6.50;99.90;;;;;;6273336;22;20324;-72
2021/03/18 08:47:03;;;;;;;25.42;11.52;;;6.40;99.90;;;;;;6273705;22;20411;-72
2021/03/18 08:49:35;;;;;;;26.23;11.45;;;6.80;99.90;;;;;;6245238;22;20428;-73
2021/03/18 08:52:09;;;;;;;20.65;9.68;;;6.50;99.90;;;;;;6273641;22;20014;-76
2021/03/18 08:54:51;;;;;;;17.02;9.85;;;6.10;99.90;;;;;;6272232;22;20022;-73
2021/03/18 08:57:32;;;;;;;23.75;10.32;;;6.00;99.90;;;;;;6272524;22;20062;-72
2021/03/18 09:00:30;;;;;;;25.95;9.27;;;5.90;99.90;;;;;;6272949;22;20011;-75
2021/03/18 09:02:56;;;;;;;21.92;10.25;;;6.20;99.90;;;;;;6268833;22;20304;-65
2021/03/18 09:05:22;;;;;;;18.30;8.65;;;6.00;99.90;;;;;;6271999;22;19999;-63
2021/03/18 09:07:58;;;;;;;19.27;8.18;;;6.10;99.90;;;;;;6273541;22;20320;-62
2021/03/18 09:10:44;;;;;;;27.98;12.57;;;6.10;99.90;;;;;;6271359;22;20003;-62
2021/03/18 09:13:21;;;;;;;23.23;10.48;;;5.80;99.90;;;;;;6273196;22;20000;-62
2021/03/18 09:15:48;;;;;;;29.40;14.07;;;5.90;99.90;;;;;;6272778;22;20007;-60
2021/03/18 09:18:25;;;;;;;22.45;11.40;;;6.20;99.90;;;;;;6273256;22;20334;-60
2021/03/18 09:20:56;;;;;;;22.58;10.45;;;6.40;99.90;;;;;;6272846;22;20507;-62
2021/03/18 09:23:28;;;;;;;26.50;12.43;;;6.60;99.90;;;;;;6272738;22;20006;-60
2021/03/18 09:25:57;;;;;;;23.63;10.05;;;6.80;99.90;;;;;;6272009;22;20004;-62
2021/03/18 09:28:24;;;;;;;34.55;14.23;;;6.60;99.90;;;;;;6272103;22;20007;-60
2021/03/18 09:30:55;;;;;;;27.75;13.15;;;6.50;99.90;;;;;;6272715;22;20014;-61
2021/03/18 09:33:41;;;;;;;27.85;13.88;;;6.90;99.90;;;;;;6271888;22;20019;-60
2021/03/18 09:36:17;;;;;;;31.70;13.52;;;7.00;99.90;;;;;;6271981;22;20011;-60
2021/03/18 09:38:54;;;;;;;19.90;8.57;;;7.00;99.90;;;;;;6272358;22;20003;-61
2021/03/18 09:41:25;;;;;;;25.10;12.88;;;7.10;99.90;;;;;;6270361;22;20039;-61
2021/03/18 09:44:00;;;;;;;28.40;11.10;;;7.40;99.90;;;;;;6272249;22;20000;-60
2021/03/18 09:46:25;;;;;;;25.70;10.77;;;7.40;99.90;;;;;;6271993;22;19999;-63
2021/03/18 09:48:51;;;;;;;23.30;10.50;;;6.70;99.90;;;;;;6273198;22;20019;-60
2021/03/18 09:51:18;;;;;;;18.17;8.35;;;6.80;99.90;;;;;;6271511;22;20049;-61
2021/03/18 09:53:54;;;;;;;20.75;10.05;;;6.90;99.90;;;;;;6272803;22;20510;-63
2021/03/18 09:56:20;;;;;;;19.42;8.65;;;6.90;99.90;;;;;;6271747;22;20427;-62
2021/03/18 09:58:46;;;;;;;29.77;14.00;;;6.70;99.90;;;;;;6272936;22;19999;-63
2021/03/18 10:01:16;;;;;;;30.85;11.57;;;7.30;99.90;;;;;;6272411;22;20015;-60
2021/03/18 10:03:51;;;;;;;29.33;12.48;;;7.70;99.90;;;;;;6272413;22;20003;-60
2021/03/18 10:06:35;;;;;;;24.73;11.73;;;7.60;99.90;;;;;;6271768;22;20070;-61
2021/03/18 10:09:34;;;;;;;23.75;11.68;;;8.00;99.90;;;;;;6272778;22;20455;-61
2021/03/18 10:12:05;;;;;;;20.55;10.10;;;7.90;99.90;;;;;;6271818;22;20027;-63
2021/03/18 10:14:34;;;;;;;15.88;7.50;;;7.20;99.90;;;;;;6271641;22;20038;-61
2021/03/18 10:17:01;;;;;;;28.95;11.93;;;7.50;99.90;;;;;;6271747;22;20077;-62
2021/03/18 10:19:32;;;;;;;21.00;10.73;;;8.00;99.90;;;;;;6270864;22;20054;-62
2021/03/18 10:22:05;;;;;;;23.30;11.35;;;8.80;99.90;;;;;;6272287;22;20050;-62
2021/03/18 10:24:31;;;;;;;22.48;9.98;;;8.90;99.90;;;;;;6244640;22;20432;-61
2021/03/18 10:27:10;;;;;;;24.73;10.50;;;9.40;99.90;;;;;;6271732;22;20004;-62
2021/03/18 10:29:37;;;;;;;30.35;15.07;;;10.40;99.90;;;;;;6271653;22;20384;-61
2021/03/18 10:32:14;;;;;;;24.48;11.05;;;8.30;99.90;;;;;;6272001;22;20015;-61
2021/03/18 10:34:52;;;;;;;32.38;13.73;;;7.60;99.90;;;;;;6271744;22;20011;-61
2021/03/18 10:37:32;;;;;;;19.63;10.07;;;7.40;99.90;;;;;;6271105;22;20008;-61
2021/03/18 10:40:37;;;;;;;21.35;10.55;;;7.10;99.90;;;;;;6272259;22;20004;-61
2021/03/18 10:43:15;;;;;;;18.25;9.27;;;7.00;99.90;;;;;;6223275;22;20478;-61
2021/03/18 10:45:44;;;;;;;19.70;9.85;;;7.60;99.90;;;;;;6271535;22;20066;-61
2021/03/18 10:48:09;;;;;;;18.95;9.00;;;8.10;99.90;;;;;;6244661;22;20034;-62
2021/03/18 10:50:37;;;;;;;23.33;9.48;;;8.00;99.90;;;;;;6271054;22;20000;-61
2021/03/18 10:53:07;;;;;;;20.25;7.13;;;7.70;99.90;;;;;;6272276;22;20057;-61
2021/03/18 10:55:39;;;;;;;19.98;8.57;;;7.50;99.90;;;;;;6271519;22;20003;-61
2021/03/18 10:58:07;;;;;;;16.55;7.72;;;7.40;99.90;;;;;;6272135;22;20003;-61
2021/03/18 11:00:37;;;;;;;21.42;9.38;;;7.70;99.90;;;;;;6271729;22;20046;-61
2021/03/18 11:03:06;;;;;;;24.08;9.80;;;7.80;99.90;;;;;;6271689;22;20031;-61
2021/03/18 11:05:38;;;;;;;17.48;7.85;;;7.20;99.90;;;;;;6271055;22;20010;-60
2021/03/18 11:08:04;;;;;;;26.00;11.98;;;7.10;99.90;;;;;;6271888;22;20028;-61
2021/03/18 11:10:40;;;;;;;20.75;8.48;;;7.20;99.90;;;;;;6271313;22;20000;-61
2021/03/18 11:13:09;;;;;;;27.30;10.20;;;7.50;99.90;;;;;;6270687;22;20011;-61
2021/03/18 11:15:59;;;;;;;22.17;11.23;;;7.80;99.90;;;;;;6271495;22;20089;-61
2021/03/18 11:18:33;;;;;;;19.85;10.43;;;7.50;99.90;;;;;;6270550;22;20026;-60
2021/03/18 11:20:59;;;;;;;21.67;8.85;;;6.80;99.90;;;;;;6271899;22;20008;-61
2021/03/18 11:23:31;;;;;;;22.73;10.10;;;7.30;99.90;;;;;;6270389;22;20057;-61
2021/03/18 11:26:00;;;;;;;20.73;10.27;;;7.40;99.90;;;;;;6272480;22;20070;-62
2021/03/18 11:28:26;;;;;;;22.38;10.40;;;7.40;99.90;;;;;;6271293;22;20015;-61
2021/03/18 11:30:54;;;;;;;17.13;8.50;;;7.50;99.90;;;;;;6271691;22;20003;-61
2021/03/18 11:33:20;;;;;;;19.58;10.77;;;8.00;99.90;;;;;;6271160;22;20094;-62
2021/03/18 11:35:51;;;;;;;19.30;8.15;;;7.90;99.90;;;;;;6244641;22;20010;-61
2021/03/18 11:38:18;;;;;;;14.90;5.82;;;8.00;99.90;;;;;;6271888;22;20073;-61
2021/03/18 11:40:46;;;;;;;19.25;9.32;;;8.00;99.90;;;;;;6270637;22;20065;-61
2021/03/18 11:43:13;;;;;;;17.70;8.52;;;8.00;99.90;;;;;;6271340;22;20178;-61
2021/03/18 11:45:39;;;;;;;19.15;7.65;;;7.70;99.90;;;;;;6270671;22;20003;-61
2021/03/18 11:48:06;;;;;;;23.90;8.15;;;7.80;99.90;;;;;;6271945;22;20000;-61
2021/03/18 11:50:33;;;;;;;24.05;11.35;;;7.70;99.90;;;;;;6271069;22;20011;-61
2021/03/18 11:52:59;;;;;;;23.05;9.55;;;7.50;99.90;;;;;;6271623;22;19999;-61
2021/03/18 11:55:25;;;;;;;23.80;7.55;;;7.50;99.90;;;;;;6270711;22;20062;-61
2021/03/18 11:57:57;;;;;;;18.50;9.15;;;7.20;99.90;;;;;;6272000;22;20007;-61
2021/03/18 12:00:24;;;;;;;22.50;10.50;;;7.30;99.90;;;;;;6243637;22;20012;-60
2021/03/18 12:02:50;;;;;;;20.08;9.30;;;7.30;99.90;;;;;;6271471;22;20031;-61
2021/03/18 12:05:15;;;;;;;19.40;8.77;;;7.20;99.90;;;;;;6271795;22;20007;-61
2021/03/18 12:07:41;;;;;;;19.80;8.90;;;7.50;99.90;;;;;;6244173;22;20083;-61
2021/03/18 12:10:07;;;;;;;20.23;8.07;;;7.70;99.90;;;;;;6271309;22;20057;-60
2021/03/18 12:12:33;;;;;;;21.45;8.68;;;7.60;99.90;;;;;;6271045;22;20000;-60
2021/03/18 12:14:59;;;;;;;12.93;5.30;;;7.20;99.90;;;;;;6270177;22;20020;-60
2021/03/18 12:17:24;;;;;;;15.40;6.07;;;7.30;99.90;;;;;;6273010;22;20079;-60
2021/03/18 12:19:50;;;;;;;11.48;5.43;;;7.20;99.90;;;;;;6273087;22;20006;-60
2021/03/18 12:22:16;;;;;;;17.10;6.82;;;7.20;99.90;;;;;;6272753;22;20082;-60
2021/03/18 12:24:41;;;;;;;17.80;6.70;;;7.40;99.90;;;;;;6271977;22;20488;-60
2021/03/18 12:27:07;;;;;;;11.43;5.00;;;7.70;99.90;;;;;;6272454;22;20063;-60
2021/03/18 12:29:33;;;;;;;18.92;9.80;;;7.70;99.90;;;;;;6272028;22;20509;-60
2021/03/18 12:31:58;;;;;;;16.67;5.65;;;7.10;99.90;;;;;;6271321;22;20019;-60
2021/03/18 12:34:24;;;;;;;13.85;6.55;;;7.00;99.90;;;;;;6272326;22;20212;-60
2021/03/18 12:36:50;;;;;;;12.05;6.03;;;7.20;99.90;;;;;;6273160;22;20011;-62
2021/03/18 12:39:15;;;;;;;16.35;7.20;;;7.20;99.90;;;;;;6272949;22;19996;-60
2021/03/18 12:41:41;;;;;;;17.15;6.30;;;7.50;99.90;;;;;;6272306;22;20495;-60
2021/03/18 12:44:07;;;;;;;20.63;8.07;;;7.50;99.90;;;;;;6272805;22;20003;-60
2021/03/18 12:46:33;;;;;;;18.60;6.70;;;7.50;99.90;;;;;;6272457;22;20049;-60
2021/03/18 12:48:59;;;;;;;13.07;6.20;;;7.70;99.90;;;;;;6272970;22;20206;-60
2021/03/18 12:51:24;;;;;;;17.35;6.38;;;8.00;99.90;;;;;;6272051;22;20427;-60